Time;durP1;ratioP1;P1;durP2;ratioP2;P2;SDS_P1;SDS_P2;PMS_P1;PMS_P2;Temp;Humidity;BMP_temperature;BMP_pressure;BME280_temperature;BME280_humidity;BME280_pressure;Samples;Min_cycle;Max_cycle;Signal;HPM_P1;HPM_P2
2023/04/21 00:00:32;;;;;;;;;;;9.30;99.90;;;;;;5175701;27;20276;-39
2023/04/21 00:02:57;;;;;;;;;;;9.30;99.90;;;;;;5175040;27;19907;-39
2023/04/21 00:05:23;;;;;;;;;;;9.30;99.90;;;;;;5175589;27;19922;-40
2023/04/21 00:07:48;;;;;;;;;;;9.30;99.90;;;;;;5175519;27;19953;-39
2023/04/21 00:10:14;;;;;;;;;;;9.30;99.90;;;;;;5174657;27;20322;-39
2023/04/21 00:12:40;;;;;;;;;;;9.30;99.90;;;;;;5175586;27;19906;-39
2023/04/21 00:15:06;;;;;;;;;;;9.30;99.90;;;;;;5175484;27;19959;-39
2023/04/21 00:17:31;;;;;;;;;;;9.30;99.90;;;;;;5174780;27;19914;-38
2023/04/21 00:19:57;;;;;;;;;;;9.30;99.90;;;;;;5175489;27;19907;-39
2023/04/21 00:22:22;;;;;;;;;;;9.30;99.90;;;;;;5175631;27;19907;-38
2023/04/21 00:24:48;;;;;;;;;;;9.20;99.90;;;;;;5174468;27;19975;-39
2023/04/21 00:27:14;;;;;;;;;;;9.20;99.90;;;;;;5175449;27;19911;-38
2023/04/21 00:29:40;;;;;;;;;;;9.20;99.90;;;;;;5175136;27;20001;-39
2023/04/21 00:32:09;;;;;;;;;;;9.10;99.90;;;;;;5174474;27;19946;-38
2023/04/21 00:34:35;;;;;;;;;;;9.10;99.90;;;;;;5175274;27;20330;-39
2023/04/21 00:37:01;;;;;;;;;;;9.00;99.90;;;;;;5175169;27;19907;-39
2023/04/21 00:39:27;;;;;;;;;;;9.00;99.90;;;;;;5174133;27;19950;-38
2023/04/21 00:41:52;;;;;;;;;;;8.90;99.90;;;;;;5175172;27;19971;-38
2023/04/21 00:44:18;;;;;;;;;;;8.90;99.90;;;;;;5175270;27;19907;-39
2023/04/21 00:46:43;;;;;;;;;;;8.80;99.90;;;;;;5174314;27;20297;-38
2023/04/21 00:49:08;;;;;;;;;;;8.80;99.90;;;;;;5175334;27;19990;-38
2023/04/21 00:51:35;;;;;;;;;;;8.80;99.90;;;;;;5174025;27;19915;-39
2023/04/21 00:54:02;;;;;;;;;;;8.80;99.90;;;;;;5174792;27;19918;-38
2023/04/21 00:56:29;;;;;;;;;;;8.70;99.90;;;;;;5175054;27;19917;-38
2023/04/21 00:58:56;;;;;;;;;;;8.70;99.90;;;;;;5174240;27;19919;-39
2023/04/21 01:01:22;;;;;;;;;;;8.70;99.90;;;;;;5174715;27;20005;-38
2023/04/21 01:03:47;;;;;;;;;;;8.60;99.90;;;;;;5157663;27;19954;-39
2023/04/21 01:06:13;;;;;;;;;;;8.60;99.90;;;;;;5173277;27;19922;-39
2023/04/21 01:08:39;;;;;;;;;;;8.60;99.90;;;;;;5168948;27;20373;-39
2023/04/21 01:11:11;;;;;;;;;;;8.60;99.90;;;;;;5165699;27;19915;-39
2023/04/21 01:13:36;;;;;;;;;;;8.60;99.90;;;;;;5174025;27;20004;-38
2023/04/21 01:16:02;;;;;;;;;;;8.60;99.90;;;;;;5174188;27;20004;-38
2023/04/21 01:18:28;;;;;;;;;;;8.70;99.90;;;;;;5174777;27;20348;-38
2023/04/21 01:20:53;;;;;;;;;;;8.70;99.90;;;;;;5173890;27;19907;-38
2023/04/21 01:23:19;;;;;;;;;;;8.70;99.90;;;;;;5174843;27;19913;-39
2023/04/21 01:25:46;;;;;;;;;;;8.70;99.90;;;;;;5174614;27;20422;-39
2023/04/21 01:28:11;;;;;;;;;;;8.70;99.90;;;;;;5174126;27;19938;-38
2023/04/21 01:30:37;;;;;;;;;;;8.70;99.90;;;;;;5168115;27;20071;-38
2023/04/21 01:33:02;;;;;;;;;;;8.70;99.90;;;;;;5165420;27;19915;-39
2023/04/21 01:35:28;;;;;;;;;;;8.70;99.90;;;;;;5165523;27;19911;-38
2023/04/21 01:37:53;;;;;;;;;;;8.70;99.90;;;;;;5158517;27;19926;-39
2023/04/21 01:40:19;;;;;;;;;;;8.80;99.90;;;;;;5174701;27;19907;-38
2023/04/21 01:42:44;;;;;;;;;;;8.80;99.90;;;;;;5161446;27;19911;-39
2023/04/21 01:45:11;;;;;;;;;;;8.80;99.90;;;;;;5153662;27;20354;-39
2023/04/21 01:47:36;;;;;;;;;;;8.70;99.90;;;;;;5153772;27;19911;-39
2023/04/21 01:50:02;;;;;;;;;;;8.70;99.90;;;;;;5159752;27;19914;-38
2023/04/21 01:52:28;;;;;;;;;;;8.70;99.90;;;;;;5177721;27;19930;-38
2023/04/21 01:54:53;;;;;;;;;;;8.70;99.90;;;;;;5177370;27;20273;-39
2023/04/21 01:57:19;;;;;;;;;;;8.70;99.90;;;;;;5178261;27;19914;-38
2023/04/21 01:59:45;;;;;;;;;;;8.70;99.90;;;;;;5178217;27;20340;-38
2023/04/21 02:02:10;;;;;;;;;;;8.70;99.90;;;;;;5177445;27;19911;-38
2023/04/21 02:04:36;;;;;;;;;;;8.70;99.90;;;;;;5178207;27;19907;-38
2023/04/21 02:07:01;;;;;;;;;;;8.70;99.90;;;;;;5159398;27;20399;-38
2023/04/21 02:09:27;;;;;;;;;;;8.70;99.90;;;;;;5164606;27;19914;-38
2023/04/21 02:11:54;;;;;;;;;;;8.70;99.90;;;;;;5177838;27;19913;-38
2023/04/21 02:14:19;;;;;;;;;;;8.70;99.90;;;;;;5178019;27;19906;-38
2023/04/21 02:16:45;;;;;;;;;;;8.60;99.90;;;;;;5177042;27;19955;-38
2023/04/21 02:19:10;;;;;;;;;;;8.60;99.90;;;;;;5177776;27;19953;-38
2023/04/21 02:21:36;;;;;;;;;;;8.50;99.90;;;;;;5177679;27;19907;-39
2023/04/21 02:24:01;;;;;;;;;;;8.60;99.90;;;;;;5176834;27;19907;-39
2023/04/21 02:26:27;;;;;;;;;;;8.50;99.90;;;;;;5177721;27;19915;-38
2023/04/21 02:28:52;;;;;;;;;;;8.50;99.90;;;;;;5177533;27;20292;-38
2023/04/21 02:31:18;;;;;;;;;;;8.50;99.90;;;;;;5176633;27;19926;-38
2023/04/21 02:33:44;;;;;;;;;;;8.50;99.90;;;;;;5177460;27;19914;-38
2023/04/21 02:36:09;;;;;;;;;;;8.50;99.90;;;;;;5177543;27;19973;-38
2023/04/21 02:38:35;;;;;;;;;;;8.50;99.90;;;;;;5176578;27;19976;-38
2023/04/21 02:41:00;;;;;;;;;;;8.50;99.90;;;;;;5177331;27;19906;-38
2023/04/21 02:43:25;;;;;;;;;;;8.50;99.90;;;;;;5177424;27;20361;-38
2023/04/21 02:45:51;;;;;;;;;;;8.50;99.90;;;;;;5176374;27;19911;-38
2023/04/21 02:48:21;;;;;;;;;;;8.50;99.90;;;;;;5177281;27;19910;-38
2023/04/21 02:50:51;;;;;;;;;;;8.50;99.90;;;;;;5177196;27;19913;-38
2023/04/21 02:53:20;;;;;;;;;;;8.40;99.90;;;;;;5176440;27;19907;-38
2023/04/21 02:55:46;;;;;;;;;;;8.50;99.90;;;;;;5177108;27;19907;-38
2023/04/21 02:58:11;;;;;;;;;;;8.40;99.90;;;;;;5176378;27;19914;-38
2023/04/21 03:00:37;;;;;;;;;;;8.40;99.90;;;;;;5176962;27;19937;-39
2023/04/21 03:03:02;;;;;;;;;;;8.40;99.90;;;;;;5176561;27;19911;-39
2023/04/21 03:05:28;;;;;;;;;;;8.40;99.90;;;;;;5176214;27;20297;-39
2023/04/21 03:07:53;;;;;;;;;;;8.40;99.90;;;;;;5176806;27;19918;-38
2023/04/21 03:10:18;;;;;;;;;;;8.40;99.90;;;;;;5176772;27;19907;-38
2023/04/21 03:12:44;;;;;;;;;;;8.30;99.90;;;;;;5175923;27;19917;-39
2023/04/21 03:15:11;;;;;;;;;;;8.30;99.90;;;;;;5177003;27;19914;-38
2023/04/21 03:17:37;;;;;;;;;;;8.40;99.90;;;;;;5176511;27;20002;-38
2023/04/21 03:20:05;;;;;;;;;;;8.40;99.90;;;;;;5175279;27;20054;-38
2023/04/21 03:22:31;;;;;;;;;;;8.40;99.90;;;;;;5176368;27;19907;-39
2023/04/21 03:24:56;;;;;;;;;;;8.40;99.90;;;;;;5176064;27;19918;-38
2023/04/21 03:27:22;;;;;;;;;;;8.40;99.90;;;;;;5175758;27;19973;-38
2023/04/21 03:29:47;;;;;;;;;;;8.40;99.90;;;;;;5175861;27;20353;-38
2023/04/21 03:32:12;;;;;;;;;;;8.40;99.90;;;;;;5175978;27;19919;-38
2023/04/21 03:34:38;;;;;;;;;;;8.40;99.90;;;;;;5175168;27;19914;-39
2023/04/21 03:37:03;;;;;;;;;;;8.40;99.90;;;;;;5176264;27;19915;-38
2023/04/21 03:39:29;;;;;;;;;;;8.40;99.90;;;;;;5175856;27;19906;-38
2023/04/21 03:41:55;;;;;;;;;;;8.40;99.90;;;;;;5174756;27;19919;-38
2023/04/21 03:44:20;;;;;;;;;;;8.40;99.90;;;;;;5176178;27;19974;-38
2023/04/21 03:46:46;;;;;;;;;;;8.30;99.90;;;;;;5176187;27;19922;-38
2023/04/21 03:49:11;;;;;;;;;;;8.40;99.90;;;;;;5175153;27;20365;-38
2023/04/21 03:51:36;;;;;;;;;;;8.40;99.90;;;;;;5175913;27;19913;-38
2023/04/21 03:54:02;;;;;;;;;;;8.30;99.90;;;;;;5175907;27;19907;-38
2023/04/21 03:56:27;;;;;;;;;;;8.30;99.90;;;;;;5175188;27;20412;-38
2023/04/21 03:58:53;;;;;;;;;;;8.30;99.90;;;;;;5175730;27;19907;-39
2023/04/21 04:01:18;;;;;;;;;;;8.30;99.90;;;;;;5175830;27;20382;-39
2023/04/21 04:03:44;;;;;;;;;;;8.30;99.90;;;;;;5174862;27;19907;-39
2023/04/21 04:06:09;;;;;;;;;;;8.30;99.90;;;;;;5175856;27;19921;-39
2023/04/21 04:08:35;;;;;;;;;;;8.30;99.90;;;;;;5174924;27;20054;-38
2023/04/21 04:11:00;;;;;;;;;;;8.30;99.90;;;;;;5175581;27;19959;-41
2023/04/21 04:13:27;;;;;;;;;;;8.30;99.90;;;;;;5175059;27;19972;-40
2023/04/21 04:15:53;;;;;;;;;;;8.30;99.90;;;;;;5174690;27;19911;-39
2023/04/21 04:18:18;;;;;;;;;;;8.20;99.90;;;;;;5175571;27;19913;-38
2023/04/21 04:20:44;;;;;;;;;;;8.20;99.90;;;;;;5175465;27;19911;-38
2023/04/21 04:23:09;;;;;;;;;;;8.20;99.90;;;;;;5167294;27;19907;-38
2023/04/21 04:25:36;;;;;;;;;;;8.10;99.90;;;;;;5157294;27;20384;-39
2023/04/21 04:28:01;;;;;;;;;;;8.10;99.90;;;;;;5168832;27;19911;-40
2023/04/21 04:30:27;;;;;;;;;;;8.10;99.90;;;;;;5174383;27;19918;-39
2023/04/21 04:32:52;;;;;;;;;;;8.10;99.90;;;;;;5155811;27;19907;-39
2023/04/21 04:35:18;;;;;;;;;;;8.00;99.90;;;;;;5162686;27;19913;-39
2023/04/21 04:37:44;;;;;;;;;;;8.00;99.90;;;;;;5174352;27;19907;-39
2023/04/21 04:40:13;;;;;;;;;;;8.00;99.90;;;;;;5175365;27;19914;-39
2023/04/21 04:42:39;;;;;;;;;;;8.00;99.90;;;;;;5175245;27;19911;-39
2023/04/21 04:45:07;;;;;;;;;;;8.00;99.90;;;;;;5174289;27;20321;-39
2023/04/21 04:47:33;;;;;;;;;;;8.00;99.90;;;;;;5156818;27;19922;-40
2023/04/21 04:49:58;;;;;;;;;;;8.10;99.90;;;;;;5174561;27;19955;-41
2023/04/21 04:52:24;;;;;;;;;;;8.10;99.90;;;;;;5165762;27;19962;-38
2023/04/21 04:54:49;;;;;;;;;;;8.10;99.90;;;;;;5171691;27;19907;-40
2023/04/21 04:57:15;;;;;;;;;;;8.10;99.90;;;;;;5160145;27;19995;-39
2023/04/21 04:59:40;;;;;;;;;;;8.10;99.90;;;;;;5158578;27;20409;-39
2023/04/21 05:02:06;;;;;;;;;;;8.20;99.90;;;;;;5169015;27;19911;-39
2023/04/21 05:04:32;;;;;;;;;;;8.20;99.90;;;;;;5172267;27;19917;-40
2023/04/21 05:06:58;;;;;;;;;;;8.20;99.90;;;;;;5170261;27;19923;-39
2023/04/21 05:09:24;;;;;;;;;;;8.20;99.90;;;;;;5174330;27;19918;-39
2023/04/21 05:11:50;;;;;;;;;;;8.20;99.90;;;;;;5153329;27;19914;-40
2023/04/21 05:14:15;;;;;;;;;;;8.30;99.90;;;;;;5154197;27;19919;-39
2023/04/21 05:16:42;;;;;;;;;;;8.30;99.90;;;;;;5150484;27;19918;-39
2023/04/21 05:19:07;;;;;;;;;;;8.30;99.90;;;;;;5160845;27;19915;-39
2023/04/21 05:21:33;;;;;;;;;;;8.30;99.90;;;;;;5167215;27;19910;-39
2023/04/21 05:23:59;;;;;;;;;;;8.30;99.90;;;;;;5163285;27;19919;-39
2023/04/21 05:26:26;;;;;;;;;;;8.30;99.90;;;;;;5170479;27;19983;-39
2023/04/21 05:28:52;;;;;;;;;;;8.30;99.90;;;;;;5175503;27;19910;-39
2023/04/21 05:31:17;;;;;;;;;;;8.40;99.90;;;;;;5177894;27;19971;-39
2023/04/21 05:33:43;;;;;;;;;;;8.40;99.90;;;;;;5177411;27;19913;-39
2023/04/21 05:36:09;;;;;;;;;;;8.50;99.90;;;;;;5175548;27;19917;-39
2023/04/21 05:38:35;;;;;;;;;;;8.50;99.90;;;;;;5167790;27;19907;-39
2023/04/21 05:41:00;;;;;;;;;;;8.60;99.90;;;;;;5171288;27;19926;-38
2023/04/21 05:43:26;;;;;;;;;;;8.60;99.90;;;;;;5174990;27;19918;-39
2023/04/21 05:45:51;;;;;;;;;;;8.60;99.90;;;;;;5175217;27;19925;-39
2023/04/21 05:48:17;;;;;;;;;;;8.70;99.90;;;;;;5175993;27;20616;-39
2023/04/21 05:50:42;;;;;;;;;;;8.70;99.90;;;;;;5176538;27;19914;-39
2023/04/21 05:53:08;;;;;;;;;;;8.80;99.90;;;;;;5176302;27;19907;-39
2023/04/21 05:55:34;;;;;;;;;;;8.80;99.90;;;;;;5172257;27;19910;-39
2023/04/21 05:57:59;;;;;;;;;;;8.80;99.90;;;;;;5176149;27;20375;-39
2023/04/21 06:00:25;;;;;;;;;;;8.90;99.90;;;;;;5175478;27;19911;-39
2023/04/21 06:02:50;;;;;;;;;;;9.00;99.90;;;;;;5171532;27;20289;-39
2023/04/21 06:05:16;;;;;;;;;;;9.00;99.90;;;;;;5175009;27;19962;-39
2023/04/21 06:07:41;;;;;;;;;;;9.10;99.90;;;;;;5175526;27;20039;-39
2023/04/21 06:10:07;;;;;;;;;;;9.10;99.90;;;;;;5175567;27;19915;-39
2023/04/21 06:12:32;;;;;;;;;;;9.20;99.90;;;;;;5177633;27;19907;-39
2023/04/21 06:14:58;;;;;;;;;;;9.20;99.90;;;;;;5173399;27;20322;-39
2023/04/21 06:17:23;;;;;;;;;;;9.30;99.90;;;;;;5170625;27;19910;-39
2023/04/21 06:19:52;;;;;;;;;;;9.40;99.90;;;;;;5159942;27;19911;-38
2023/04/21 06:22:24;;;;;;;;;;;9.40;99.90;;;;;;5155825;27;20258;-38
2023/04/21 06:24:49;;;;;;;;;;;9.50;99.90;;;;;;5156801;27;19930;-39
2023/04/21 06:27:15;;;;;;;;;;;9.60;99.90;;;;;;5156694;27;20362;-41
2023/04/21 06:29:43;;;;;;;;;;;9.60;99.90;;;;;;5155651;27;19919;-39
2023/04/21 06:32:09;;;;;;;;;;;9.80;99.90;;;;;;5156685;27;19998;-38
2023/04/21 06:34:35;;;;;;;;;;;9.80;99.90;;;;;;5156661;27;19908;-39
2023/04/21 06:37:00;;;;;;;;;;;9.90;99.90;;;;;;5174928;27;19917;-38
2023/04/21 06:39:26;;;;;;;;;;;9.90;99.90;;;;;;5177534;27;20440;-38
2023/04/21 06:41:51;;;;;;;;;;;10.00;99.90;;;;;;5177328;27;19917;-39
2023/04/21 06:44:17;;;;;;;;;;;10.10;99.90;;;;;;5176517;27;19911;-39
2023/04/21 06:46:42;;;;;;;;;;;10.20;99.90;;;;;;5177095;27;20009;-40
2023/04/21 06:49:08;;;;;;;;;;;10.40;99.90;;;;;;5177208;27;20001;-39
2023/04/21 06:51:34;;;;;;;;;;;10.50;99.90;;;;;;5176527;27;19914;-38
2023/04/21 06:54:00;;;;;;;;;;;10.70;99.90;;;;;;5177112;27;20011;-39
2023/04/21 06:56:26;;;;;;;;;;;10.90;99.90;;;;;;5177227;27;19911;-38
2023/04/21 06:58:52;;;;;;;;;;;11.00;99.90;;;;;;5175817;27;19973;-39
2023/04/21 07:01:17;;;;;;;;;;;11.10;99.90;;;;;;5176662;27;20009;-38
2023/04/21 07:03:43;;;;;;;;;;;11.10;99.90;;;;;;5177061;27;19998;-39
2023/04/21 07:06:08;;;;;;;;;;;11.10;99.90;;;;;;5175727;27;19918;-38
2023/04/21 07:08:34;;;;;;;;;;;11.20;99.90;;;;;;5177003;27;20361;-38
2023/04/21 07:10:59;;;;;;;;;;;11.30;99.90;;;;;;5176809;27;19907;-38
2023/04/21 07:13:25;;;;;;;;;;;11.30;99.90;;;;;;5175512;27;19915;-39
2023/04/21 07:15:51;;;;;;;;;;;11.40;99.90;;;;;;5176690;27;19917;-39
2023/04/21 07:18:16;;;;;;;;;;;11.40;99.90;;;;;;5176751;27;19907;-39
2023/04/21 07:20:41;;;;;;;;;;;11.40;99.90;;;;;;5175868;27;20270;-38
2023/04/21 07:23:07;;;;;;;;;;;11.30;99.90;;;;;;5176563;27;19949;-38
2023/04/21 07:25:32;;;;;;;;;;;11.40;99.90;;;;;;5175085;27;20284;-38
2023/04/21 07:27:58;;;;;;;;;;;11.50;99.90;;;;;;5176409;27;19958;-39
2023/04/21 07:30:23;;;;;;;;;;;11.60;99.90;;;;;;5176182;27;20125;-39
2023/04/21 07:32:49;;;;;;;;;;;11.70;99.90;;;;;;5175554;27;19989;-39
2023/04/21 07:35:14;;;;;;;;;;;11.80;99.90;;;;;;5176401;27;19945;-39
2023/04/21 07:37:40;;;;;;;;;;;11.70;99.90;;;;;;5176359;27;19907;-39
2023/04/21 07:40:07;;;;;;;;;;;11.70;99.90;;;;;;5175429;27;19914;-39
2023/04/21 07:42:32;;;;;;;;;;;11.70;99.90;;;;;;5175999;27;20413;-39
2023/04/21 07:44:59;;;;;;;;;;;11.70;99.90;;;;;;5176086;27;19907;-39
2023/04/21 07:47:25;;;;;;;;;;;11.80;99.90;;;;;;5175434;27;19916;-39
2023/04/21 07:49:51;;;;;;;;;;;11.90;99.90;;;;;;5175071;27;19911;-39
2023/04/21 07:52:16;;;;;;;;;;;12.00;99.90;;;;;;5175628;27;19911;-39
2023/04/21 07:54:42;;;;;;;;;;;12.20;99.90;;;;;;5175215;27;20349;-39
2023/04/21 07:57:07;;;;;;;;;;;12.40;99.90;;;;;;5175807;27;19914;-39
2023/04/21 07:59:33;;;;;;;;;;;12.60;99.90;;;;;;5175748;27;19911;-40
2023/04/21 08:01:58;;;;;;;;;;;12.80;99.90;;;;;;5174771;27;19918;-39
2023/04/21 08:04:24;;;;;;;;;;;13.00;99.90;;;;;;5175874;27;19907;-39
2023/04/21 08:06:49;;;;;;;;;;;13.00;99.90;;;;;;5175581;27;19914;-39
2023/04/21 08:09:15;;;;;;;;;;;13.10;99.90;;;;;;5174726;27;19938;-39
2023/04/21 08:11:40;;;;;;;;;;;13.10;99.90;;;;;;5175488;27;19907;-39
2023/04/21 08:14:08;;;;;;;;;;;13.10;99.90;;;;;;5175813;27;19907;-39
2023/04/21 08:16:33;;;;;;;;;;;13.20;99.90;;;;;;5174813;27;19907;-38
2023/04/21 08:18:59;;;;;;;;;;;13.30;99.90;;;;;;5175303;27;20254;-39
2023/04/21 08:21:24;;;;;;;;;;;13.30;99.90;;;;;;5175630;27;19907;-39
2023/04/21 08:23:50;;;;;;;;;;;13.40;99.90;;;;;;5174716;27;19930;-39
2023/04/21 08:26:17;;;;;;;;;;;13.50;99.90;;;;;;5175267;27;19914;-38
2023/04/21 08:28:43;;;;;;;;;;;13.50;99.90;;;;;;5174901;27;20368;-39
2023/04/21 08:31:08;;;;;;;;;;;13.40;99.90;;;;;;5174910;27;19918;-39
2023/04/21 08:33:34;;;;;;;;;;;13.40;99.90;;;;;;5175269;27;19907;-38
2023/04/21 08:35:59;;;;;;;;;;;13.50;99.90;;;;;;5174577;27;19990;-39
2023/04/21 08:38:25;;;;;;;;;;;13.60;99.90;;;;;;5174683;27;19922;-39
2023/04/21 08:40:50;;;;;;;;;;;13.70;99.90;;;;;;5175179;27;19907;-39
2023/04/21 08:43:16;;;;;;;;;;;13.80;99.90;;;;;;5174600;27;19911;-39
2023/04/21 08:45:42;;;;;;;;;;;13.90;99.90;;;;;;5175135;27;19969;-39
2023/04/21 08:48:12;;;;;;;;;;;14.00;99.90;;;;;;5175198;27;19907;-39
2023/04/21 08:50:37;;;;;;;;;;;14.10;99.90;;;;;;5174351;27;19907;-39
2023/04/21 08:53:03;;;;;;;;;;;14.10;99.90;;;;;;5175134;27;19914;-39
2023/04/21 08:55:29;;;;;;;;;;;14.20;99.90;;;;;;5175157;27;19930;-39
2023/04/21 08:57:55;;;;;;;;;;;14.20;99.90;;;;;;5174324;27;19907;-39
2023/04/21 09:00:21;;;;;;;;;;;14.40;99.90;;;;;;5176677;27;19913;-39
2023/04/21 09:02:54;;;;;;;;;;;14.50;99.90;;;;;;5179343;27;19930;-39
2023/04/21 09:05:24;;;;;;;;;;;14.60;99.90;;;;;;5178519;27;19914;-39
2023/04/21 09:07:50;;;;;;;;;;;14.70;99.90;;;;;;5179020;27;19932;-39
2023/04/21 09:10:21;;;;;;;;;;;14.90;99.90;;;;;;5179388;27;20031;-39
2023/04/21 09:12:49;;;;;;;;;;;15.00;99.90;;;;;;5178318;27;19953;-39
2023/04/21 09:15:15;;;;;;;;;;;15.20;99.90;;;;;;5179170;27;19914;-39
2023/04/21 09:17:43;;;;;;;;;;;15.30;99.90;;;;;;5179158;27;19907;-39
2023/04/21 09:20:15;;;;;;;;;;;15.50;99.90;;;;;;5178237;27;19914;-40
2023/04/21 09:22:40;;;;;;;;;;;15.80;99.90;;;;;;5179007;27;19994;-39
2023/04/21 09:25:06;;;;;;;;;;;15.90;99.90;;;;;;5178125;27;19979;-39
2023/04/21 09:27:34;;;;;;;;;;;16.00;99.90;;;;;;5178968;27;19911;-39
2023/04/21 09:30:05;;;;;;;;;;;15.90;99.90;;;;;;5178527;27;19919;-39
2023/04/21 09:32:35;;;;;;;;;;;16.00;99.90;;;;;;5178070;27;20062;-39
2023/04/21 09:35:00;;;;;;;;;;;16.10;99.90;;;;;;5178688;27;20349;-39
2023/04/21 09:37:30;;;;;;;;;;;16.10;99.90;;;;;;5178366;27;19996;-39
2023/04/21 09:39:56;;;;;;;;;;;16.20;99.90;;;;;;5177889;27;19915;-39
2023/04/21 09:42:27;;;;;;;;;;;16.20;99.90;;;;;;5178656;27;20357;-41
2023/04/21 09:44:52;;;;;;;;;;;16.30;99.90;;;;;;5178606;27;19907;-39
2023/04/21 09:47:18;;;;;;;;;;;16.40;99.90;;;;;;5177483;27;19919;-39
2023/04/21 09:49:44;;;;;;;;;;;16.50;99.90;;;;;;5178469;27;20376;-39
2023/04/21 09:52:11;;;;;;;;;;;16.50;99.90;;;;;;5178337;27;19914;-39
2023/04/21 09:54:42;;;;;;;;;;;16.50;99.90;;;;;;5177714;27;19907;-39
2023/04/21 09:57:09;;;;;;;;;;;16.60;99.90;;;;;;5178289;27;19907;-39
2023/04/21 09:59:35;;;;;;;;;;;16.60;99.90;;;;;;5178362;27;19907;-39
2023/04/21 10:02:05;;;;;;;;;;;16.60;99.90;;;;;;5177402;27;20269;-39
2023/04/21 10:04:32;;;;;;;;;;;16.70;99.90;;;;;;5178297;27;19906;-38
2023/04/21 10:06:58;;;;;;;;;;;16.80;99.90;;;;;;5177537;27;19914;-40
2023/04/21 10:09:26;;;;;;;;;;;17.10;99.90;;;;;;5177246;27;19954;-40
2023/04/21 10:11:52;;;;;;;;;;;17.30;99.90;;;;;;5176866;27;19911;-39
2023/04/21 10:14:18;;;;;;;;;;;17.50;99.90;;;;;;5177170;27;20064;-39
2023/04/21 10:16:55;;;;;;;;;;;17.60;99.90;;;;;;5177706;27;20466;-40
2023/04/21 10:19:24;;;;;;;;;;;17.70;99.90;;;;;;5177989;27;19972;-39
2023/04/21 10:21:50;;;;;;;;;;;18.00;99.90;;;;;;5177069;27;19929;-39
2023/04/21 10:24:15;;;;;;;;;;;18.20;99.90;;;;;;5177834;27;20353;-39
2023/04/21 10:26:41;;;;;;;;;;;18.40;99.90;;;;;;5177609;27;19915;-39
2023/04/21 10:29:08;;;;;;;;;;;18.40;99.90;;;;;;5176518;27;19907;-39
2023/04/21 10:31:35;;;;;;;;;;;18.40;99.90;;;;;;5177799;27;19913;-39
2023/04/21 10:34:00;;;;;;;;;;;18.40;99.90;;;;;;5177556;27;19907;-41
2023/04/21 10:36:26;;;;;;;;;;;18.40;99.90;;;;;;5176973;27;20250;-40
2023/04/21 10:38:54;;;;;;;;;;;18.40;99.90;;;;;;5177020;27;19918;-40
2023/04/21 10:41:26;;;;;;;;;;;18.40;99.90;;;;;;5177533;27;19907;-39
2023/04/21 10:43:51;;;;;;;;;;;18.50;99.90;;;;;;5176507;27;19907;-39
2023/04/21 10:46:35;;;;;;;;;;;18.50;99.90;;;;;;5177044;27;19919;-39
2023/04/21 10:49:04;;;;;;;;;;;18.50;99.90;;;;;;5177338;27;19907;-40
2023/04/21 10:51:31;;;;;;;;;;;18.50;99.90;;;;;;5175967;27;20011;-40
2023/04/21 10:53:57;;;;;;;;;;;18.60;99.90;;;;;;5177140;27;19907;-39
2023/04/21 10:56:23;;;;;;;;;;;18.70;99.90;;;;;;5177068;27;19917;-39
2023/04/21 10:58:50;;;;;;;;;;;18.80;99.90;;;;;;5176665;27;19907;-40
2023/04/21 11:01:16;;;;;;;;;;;18.70;99.90;;;;;;5177127;27;19907;-41
2023/04/21 11:03:41;;;;;;;;;;;18.70;99.90;;;;;;5176270;27;19906;-39
2023/04/21 11:06:13;;;;;;;;;;;18.70;99.90;;;;;;5176759;27;19914;-39
2023/04/21 11:08:53;;;;;;;;;;;18.60;99.90;;;;;;5176857;27;20242;-40
2023/04/21 11:11:25;;;;;;;;;;;18.50;99.90;;;;;;5176145;27;20345;-39
2023/04/21 11:13:51;;;;;;;;;;;18.40;99.90;;;;;;5176808;27;19907;-40
2023/04/21 11:16:17;;;;;;;;;;;18.40;99.90;;;;;;5176546;27;20265;-40
2023/04/21 11:18:43;;;;;;;;;;;18.50;99.90;;;;;;5176000;27;19913;-39
2023/04/21 11:21:09;;;;;;;;;;;18.80;99.90;;;;;;5176575;27;19906;-41
2023/04/21 11:23:35;;;;;;;;;;;19.00;99.90;;;;;;5176478;27;19963;-40
2023/04/21 11:26:00;;;;;;;;;;;19.10;99.90;;;;;;5175701;27;20023;-41
2023/04/21 11:28:26;;;;;;;;;;;19.20;99.90;;;;;;5176420;27;19930;-39
2023/04/21 11:30:51;;;;;;;;;;;19.30;99.90;;;;;;5176144;27;19973;-40
2023/04/21 11:33:16;;;;;;;;;;;19.30;99.90;;;;;;5175675;27;20343;-39
2023/04/21 11:35:42;;;;;;;;;;;19.10;99.90;;;;;;5176326;27;19913;-39
2023/04/21 11:38:07;;;;;;;;;;;19.00;99.90;;;;;;5176338;27;19917;-39
2023/04/21 11:40:48;;;;;;;;;;;19.00;99.90;;;;;;5175601;27;19998;-39
2023/04/21 11:43:16;;;;;;;;;;;19.20;99.90;;;;;;5175080;27;20396;-40
2023/04/21 11:45:41;;;;;;;;;;;19.30;99.90;;;;;;5175360;27;20009;-41
2023/04/21 11:48:16;;;;;;;;;;;19.60;99.90;;;;;;5176011;27;19914;-39
2023/04/21 11:50:49;;;;;;;;;;;19.90;98.30;;;;;;5176165;27;19995;-40
2023/04/21 11:53:14;;;;;;;;;;;19.80;99.50;;;;;;5174504;27;19911;-40
2023/04/21 11:55:44;;;;;;;;;;;20.00;99.90;;;;;;5173856;27;19911;-40
2023/04/21 11:58:11;;;;;;;;;;;20.10;99.90;;;;;;5159655;27;19907;-40
2023/04/21 12:00:36;;;;;;;;;;;20.30;99.80;;;;;;5165444;27;19918;-39
2023/04/21 12:03:02;;;;;;;;;;;20.40;97.80;;;;;;5175075;27;19913;-40
2023/04/21 12:05:34;;;;;;;;;;;20.40;99.40;;;;;;5175799;27;19932;-40
2023/04/21 12:08:00;;;;;;;;;;;20.20;96.20;;;;;;5174945;27;19910;-40
2023/04/21 12:10:27;;;;;;;;;;;20.00;91.20;;;;;;5175266;27;20250;-40
2023/04/21 12:12:54;;;;;;;;;;;20.00;90.50;;;;;;5175633;27;20296;-39
2023/04/21 12:15:21;;;;;;;;;;;19.90;91.20;;;;;;5170864;27;19907;-39
2023/04/21 12:17:51;;;;;;;;;;;19.90;87.70;;;;;;5155794;27;20678;-40
2023/04/21 12:20:17;;;;;;;;;;;20.10;93.40;;;;;;5168310;27;19915;-40
2023/04/21 12:22:43;;;;;;;;;;;20.30;92.40;;;;;;5172294;27;20353;-40
2023/04/21 12:25:09;;;;;;;;;;;20.50;95.70;;;;;;5175152;27;20040;-40
2023/04/21 12:27:34;;;;;;;;;;;20.70;95.00;;;;;;5175117;27;19969;-40
2023/04/21 12:30:00;;;;;;;;;;;20.90;94.30;;;;;;5173559;27;19919;-41
2023/04/21 12:32:25;;;;;;;;;;;20.90;92.50;;;;;;5175248;27;19911;-39
2023/04/21 12:34:51;;;;;;;;;;;20.90;93.30;;;;;;5174559;27;20353;-40
2023/04/21 12:37:17;;;;;;;;;;;20.70;92.20;;;;;;5174777;27;19907;-41
2023/04/21 12:39:42;;;;;;;;;;;20.70;90.60;;;;;;5175239;27;19906;-40
2023/04/21 12:42:08;;;;;;;;;;;20.80;91.40;;;;;;5174508;27;19907;-40
2023/04/21 12:44:33;;;;;;;;;;;21.10;92.70;;;;;;5175097;27;19907;-40
2023/04/21 12:46:59;;;;;;;;;;;21.20;88.70;;;;;;5175139;27;19914;-40
2023/04/21 12:49:24;;;;;;;;;;;21.20;87.30;;;;;;5174472;27;19907;-40
2023/04/21 12:51:50;;;;;;;;;;;21.20;89.70;;;;;;5174991;27;19944;-41
2023/04/21 12:54:16;;;;;;;;;;;21.00;90.70;;;;;;5175309;27;19911;-39
2023/04/21 12:56:41;;;;;;;;;;;20.90;89.60;;;;;;5174446;27;19931;-41
2023/04/21 12:59:08;;;;;;;;;;;20.80;85.60;;;;;;5174592;27;19913;-40
2023/04/21 13:01:34;;;;;;;;;;;20.90;74.60;;;;;;5174873;27;19933;-40
2023/04/21 13:04:00;;;;;;;;;;;21.40;93.40;;;;;;5174142;27;20337;-39
2023/04/21 13:06:26;;;;;;;;;;;21.60;81.30;;;;;;5175077;27;19919;-40
2023/04/21 13:08:52;;;;;;;;;;;21.60;77.60;;;;;;5175008;27;20285;-40
2023/04/21 13:11:17;;;;;;;;;;;21.60;74.40;;;;;;5174174;27;19907;-40
2023/04/21 13:13:43;;;;;;;;;;;21.60;85.90;;;;;;5175002;27;19914;-40
2023/04/21 13:16:08;;;;;;;;;;;22.10;78.40;;;;;;5174922;27;20317;-40
2023/04/21 13:18:34;;;;;;;;;;;22.30;74.40;;;;;;5174256;27;19907;-40
2023/04/21 13:21:00;;;;;;;;;;;22.10;70.10;;;;;;5174432;27;20344;-41
2023/04/21 13:23:26;;;;;;;;;;;22.00;69.00;;;;;;5175650;27;20230;-40
2023/04/21 13:25:51;;;;;;;;;;;21.80;69.90;;;;;;5167933;27;19930;-41
2023/04/21 13:28:18;;;;;;;;;;;21.70;76.50;;;;;;5164344;27;20285;-40
2023/04/21 13:30:44;;;;;;;;;;;21.60;75.00;;;;;;5163587;27;19919;-40
2023/04/21 13:33:10;;;;;;;;;;;21.50;76.90;;;;;;5173607;27;19911;-41
2023/04/21 13:35:35;;;;;;;;;;;21.50;83.40;;;;;;5174867;27;19907;-40
2023/04/21 13:38:01;;;;;;;;;;;21.60;80.80;;;;;;5174699;27;19914;-40
2023/04/21 13:40:26;;;;;;;;;;;22.10;74.70;;;;;;5174074;27;19911;-40
2023/04/21 13:42:52;;;;;;;;;;;22.70;78.10;;;;;;5174251;27;19915;-40
2023/04/21 13:45:18;;;;;;;;;;;23.00;74.00;;;;;;5168987;27;19946;-40
2023/04/21 13:47:43;;;;;;;;;;;23.70;65.70;;;;;;5165067;27;19971;-41
2023/04/21 13:50:09;;;;;;;;;;;24.20;68.20;;;;;;5167930;27;19911;-42
2023/04/21 13:52:35;;;;;;;;;;;24.80;63.30;;;;;;5167815;27;20327;-40
2023/04/21 13:55:01;;;;;;;;;;;24.80;60.70;;;;;;5174175;27;19911;-41
2023/04/21 13:57:26;;;;;;;;;;;24.80;64.30;;;;;;5171127;27;19915;-41
2023/04/21 13:59:53;;;;;;;;;;;24.60;59.30;;;;;;5169067;27;19919;-41
2023/04/21 14:02:21;;;;;;;;;;;24.60;69.60;;;;;;5173140;27;19955;-40
2023/04/21 14:04:47;;;;;;;;;;;24.30;60.30;;;;;;5169425;27;19953;-40
2023/04/21 14:07:16;;;;;;;;;;;23.90;66.70;;;;;;5170186;27;19958;-40
2023/04/21 14:09:42;;;;;;;;;;;24.10;63.30;;;;;;5174881;27;19906;-41
2023/04/21 14:12:09;;;;;;;;;;;24.40;55.60;;;;;;5177877;27;19918;-40
2023/04/21 14:14:34;;;;;;;;;;;24.10;53.10;;;;;;5177282;27;19907;-41
2023/04/21 14:17:00;;;;;;;;;;;23.50;55.00;;;;;;5170133;27;20269;-40